createdAt,value
2018-08-13T00:00:37.552Z,319.00
2018-08-13T00:01:38.338Z,319.00
2018-08-13T00:02:39.098Z,319.00
2018-08-13T00:03:39.869Z,319.00
2018-08-13T00:04:40.644Z,320.00
2018-08-13T00:05:41.438Z,320.00
2018-08-13T00:06:42.213Z,319.00
2018-08-13T00:07:42.989Z,319.00
2018-08-13T00:08:43.762Z,319.00
2018-08-13T00:09:44.535Z,320.00
2018-08-13T00:10:45.342Z,319.00
2018-08-13T00:11:46.115Z,319.00
2018-08-13T00:12:46.888Z,319.00
2018-08-13T00:13:47.658Z,320.00
2018-08-13T00:14:48.431Z,319.00
2018-08-13T00:15:49.228Z,319.00
2018-08-13T00:16:50.109Z,319.00
2018-08-13T00:17:50.179Z,319.00
2018-08-13T00:18:52.509Z,319.00
2018-08-13T00:19:58.499Z,319.00
2018-08-13T00:20:59.293Z,319.00
2018-08-13T00:22:00.063Z,319.00
2018-08-13T00:23:00.833Z,320.00
2018-08-13T00:24:01.604Z,319.00
2018-08-13T00:25:02.379Z,319.00
2018-08-13T00:26:03.176Z,320.00
2018-08-13T00:27:03.944Z,319.00
2018-08-13T00:28:04.809Z,320.00
2018-08-13T00:29:04.514Z,319.00
2018-08-13T00:30:06.282Z,319.00
2018-08-13T00:31:07.084Z,319.00
2018-08-13T00:32:07.857Z,320.00
2018-08-13T00:33:08.643Z,319.00
2018-08-13T00:34:09.416Z,319.00
2018-08-13T00:35:10.186Z,319.00
2018-08-13T00:36:10.983Z,319.00
2018-08-13T00:37:11.753Z,319.00
2018-08-13T00:38:12.526Z,319.00
2018-08-13T00:39:13.304Z,320.00
2018-08-13T00:40:14.067Z,319.00
2018-08-13T00:41:14.879Z,319.00
2018-08-13T00:42:15.637Z,319.00
2018-08-13T00:43:16.408Z,319.00
2018-08-13T00:44:17.183Z,319.00
2018-08-13T00:45:17.957Z,319.00
2018-08-13T00:46:18.789Z,320.00
2018-08-13T00:47:19.566Z,319.00
2018-08-13T00:48:20.329Z,319.00
2018-08-13T00:49:22.102Z,319.00
2018-08-13T00:50:21.879Z,319.00
2018-08-13T00:51:22.672Z,320.00
2018-08-13T00:52:23.437Z,319.00
2018-08-13T00:53:24.212Z,319.00
2018-08-13T00:54:24.987Z,319.00
2018-08-13T00:55:25.763Z,320.00
2018-08-13T00:56:26.578Z,319.00
2018-08-13T00:57:27.332Z,319.00
2018-08-13T00:58:28.103Z,319.00
2018-08-13T00:59:28.885Z,319.00
2018-08-13T01:00:29.654Z,320.00
2018-08-13T01:01:30.459Z,319.00
2018-08-13T01:02:31.234Z,319.00
2018-08-13T01:03:32.007Z,319.00
2018-08-13T01:04:33.775Z,319.00
2018-08-13T01:05:33.552Z,319.00
2018-08-13T01:06:34.349Z,319.00
2018-08-13T01:07:35.121Z,319.00
2018-08-13T01:08:35.891Z,319.00
2018-08-13T01:09:36.658Z,320.00
2018-08-13T01:10:37.434Z,319.00
2018-08-13T01:11:38.227Z,319.00
2018-08-13T01:12:38.999Z,319.00
2018-08-13T01:13:39.775Z,320.00
2018-08-13T01:14:40.549Z,319.00
2018-08-13T01:15:41.325Z,319.00
2018-08-13T01:16:42.115Z,319.00
2018-08-13T01:17:42.885Z,319.00
2018-08-13T01:18:43.658Z,320.00
2018-08-13T01:19:44.429Z,319.00
2018-08-13T01:20:45.208Z,320.00
2018-08-13T01:21:46.011Z,319.00
2018-08-13T01:22:46.782Z,319.00
2018-08-13T01:23:47.561Z,319.00
2018-08-13T01:24:48.343Z,319.00
2018-08-13T01:25:49.114Z,319.00
2018-08-13T01:26:49.920Z,319.00
2018-08-13T01:27:50.685Z,320.00
2018-08-13T01:28:51.456Z,319.00
2018-08-13T01:29:52.236Z,319.00
2018-08-13T01:30:53.008Z,319.00
2018-08-13T01:31:53.810Z,319.00
2018-08-13T01:32:54.585Z,320.00
2018-08-13T01:33:55.364Z,319.00
2018-08-13T01:34:56.136Z,319.00
2018-08-13T01:35:56.914Z,319.00
2018-08-13T01:36:57.712Z,320.00
2018-08-13T01:37:58.488Z,319.00
2018-08-13T01:38:59.258Z,319.00
2018-08-13T01:40:00.031Z,319.00
2018-08-13T01:41:00.807Z,319.00
2018-08-13T01:42:01.611Z,319.00
2018-08-13T01:43:02.385Z,319.00
2018-08-13T01:44:03.160Z,320.00
2018-08-13T01:45:03.935Z,319.00
2018-08-13T01:46:04.714Z,320.00
2018-08-13T01:47:05.506Z,320.00
2018-08-13T01:48:06.281Z,319.00
2018-08-13T01:49:07.050Z,319.00
2018-08-13T01:50:07.825Z,319.00
2018-08-13T01:51:08.603Z,320.00
2018-08-13T01:52:09.393Z,319.00
2018-08-13T01:53:10.169Z,319.00
2018-08-13T01:54:10.944Z,319.00
2018-08-13T01:55:11.717Z,319.00
2018-08-13T01:56:11.503Z,319.00
2018-08-13T01:57:13.290Z,320.00
2018-08-13T01:58:14.062Z,319.00
2018-08-13T01:59:14.838Z,319.00
2018-08-13T02:00:15.606Z,319.00
2018-08-13T02:01:16.414Z,319.00
2018-08-13T02:02:17.184Z,319.00
2018-08-13T02:03:17.955Z,319.00
2018-08-13T02:04:18.726Z,320.00
2018-08-13T02:05:19.504Z,319.00
2018-08-13T02:06:20.273Z,319.00
2018-08-13T02:07:21.079Z,319.00
2018-08-13T02:08:22.255Z,319.00
2018-08-13T02:09:22.451Z,319.00
2018-08-13T02:10:21.632Z,319.00
2018-08-13T02:11:21.812Z,319.00
2018-08-13T02:14:37.731Z,319.00
2018-08-13T02:15:38.501Z,319.00
2018-08-13T02:16:39.271Z,320.00
2018-08-13T02:17:40.050Z,319.00
2018-08-13T02:18:40.844Z,319.00
2018-08-13T02:19:41.616Z,319.00
2018-08-13T02:20:42.389Z,319.00
2018-08-13T02:21:43.159Z,319.00
2018-08-13T02:22:43.942Z,319.00
2018-08-13T02:23:44.749Z,319.00
2018-08-13T02:24:44.502Z,320.00
2018-08-13T02:25:46.274Z,319.00
2018-08-13T02:26:47.051Z,319.00
2018-08-13T02:27:47.824Z,319.00
2018-08-13T02:28:48.625Z,319.00
2018-08-13T02:29:49.394Z,320.00
2018-08-13T02:30:50.169Z,320.00
2018-08-13T02:31:50.942Z,319.00
2018-08-13T02:32:51.713Z,319.00
2018-08-13T02:33:52.517Z,319.00
2018-08-13T02:34:53.280Z,320.00
2018-08-13T02:35:53.055Z,319.00
2018-08-13T02:36:54.825Z,319.00
2018-08-13T02:37:55.593Z,319.00
2018-08-13T02:38:56.393Z,320.00
2018-08-13T02:39:57.166Z,319.00
2018-08-13T02:40:57.932Z,319.00
2018-08-13T02:41:58.704Z,319.00
2018-08-13T02:42:59.475Z,319.00
2018-08-13T02:44:00.286Z,320.00
2018-08-13T02:45:01.070Z,319.00
2018-08-13T02:46:01.828Z,319.00
2018-08-13T02:47:02.596Z,319.00
2018-08-13T02:48:03.378Z,320.00
2018-08-13T02:49:04.167Z,319.00
2018-08-13T02:50:04.932Z,320.00
2018-08-13T02:51:05.704Z,320.00
2018-08-13T02:52:06.476Z,319.00
2018-08-13T02:53:07.254Z,320.00
2018-08-13T02:54:08.059Z,319.00
2018-08-13T02:55:08.833Z,319.00
2018-08-13T02:56:09.601Z,319.00
2018-08-13T02:57:10.372Z,319.00
2018-08-13T02:58:11.212Z,319.00
2018-08-13T02:59:10.952Z,319.00
2018-08-13T03:00:12.726Z,319.00
2018-08-13T03:01:13.495Z,320.00
2018-08-13T03:02:14.274Z,320.00
2018-08-13T03:03:15.045Z,319.00
2018-08-13T03:04:15.843Z,319.00
2018-08-13T03:05:16.613Z,319.00
2018-08-13T03:06:17.393Z,319.00
2018-08-13T03:07:18.167Z,319.00
2018-08-13T03:08:18.944Z,319.00
2018-08-13T03:09:19.740Z,319.00
2018-08-13T03:10:20.520Z,319.00
2018-08-13T03:11:21.289Z,320.00
2018-08-13T03:12:22.064Z,319.00
2018-08-13T03:13:22.836Z,319.00
2018-08-13T03:14:23.637Z,319.00
2018-08-13T03:15:24.417Z,320.00
2018-08-13T03:16:25.189Z,320.00
2018-08-13T03:17:24.962Z,319.00
2018-08-13T03:18:26.735Z,319.00
2018-08-13T03:19:27.534Z,319.00
2018-08-13T03:20:28.302Z,320.00
2018-08-13T03:21:29.078Z,319.00
2018-08-13T03:22:29.857Z,319.00
2018-08-13T03:23:30.632Z,319.00
2018-08-13T03:24:30.459Z,319.00
2018-08-13T03:25:31.204Z,320.00
2018-08-13T03:26:32.977Z,319.00
2018-08-13T03:27:33.752Z,319.00
2018-08-13T03:28:34.523Z,320.00
2018-08-13T03:29:35.326Z,320.00
2018-08-13T03:30:36.106Z,319.00
2018-08-13T03:31:36.874Z,320.00
2018-08-13T03:32:37.649Z,319.00
2018-08-13T03:33:38.475Z,319.00
2018-08-13T03:34:38.232Z,320.00
2018-08-13T03:35:40.003Z,320.00
2018-08-13T03:36:40.778Z,320.00
2018-08-13T03:37:41.551Z,320.00
2018-08-13T03:38:42.327Z,320.00
2018-08-13T03:39:43.127Z,320.00
2018-08-13T03:40:43.901Z,320.00
2018-08-13T03:41:44.675Z,320.00
2018-08-13T03:42:45.452Z,320.00
2018-08-13T03:43:46.223Z,320.00
2018-08-13T03:44:47.030Z,320.00
2018-08-13T03:45:46.806Z,320.00
2018-08-13T03:46:48.577Z,319.00
2018-08-13T03:47:49.347Z,321.00
2018-08-13T03:48:50.145Z,320.00
2018-08-13T03:49:50.932Z,320.00
2018-08-13T03:50:51.704Z,320.00
2018-08-13T03:51:52.481Z,321.00
2018-08-13T03:52:53.253Z,321.00
2018-08-13T03:53:54.108Z,320.00
2018-08-13T03:54:53.836Z,320.00
2018-08-13T03:55:55.606Z,320.00
2018-08-13T03:56:56.380Z,320.00
2018-08-13T03:57:57.154Z,321.00
2018-08-13T03:58:57.933Z,320.00
2018-08-13T03:59:58.726Z,321.00
2018-08-13T04:00:59.507Z,320.00
2018-08-13T04:02:00.279Z,320.00
2018-08-13T04:03:01.057Z,320.00
2018-08-13T04:04:01.834Z,320.00
2018-08-13T04:05:02.635Z,320.00
2018-08-13T04:06:03.404Z,321.00
2018-08-13T04:07:04.180Z,320.00
2018-08-13T04:08:04.951Z,320.00
2018-08-13T04:09:07.558Z,321.00
2018-08-13T04:10:06.803Z,321.00
2018-08-13T04:11:13.901Z,320.00
2018-08-13T04:12:13.718Z,320.00
2018-08-13T04:13:14.442Z,320.00
2018-08-13T04:14:16.214Z,320.00
2018-08-13T04:15:17.016Z,320.00
2018-08-13T04:16:17.787Z,320.00
2018-08-13T04:17:18.565Z,321.00
2018-08-13T04:18:19.333Z,320.00
2018-08-13T04:19:20.108Z,321.00
2018-08-13T04:20:20.905Z,320.00
2018-08-13T04:21:21.681Z,320.00
2018-08-13T04:22:22.456Z,320.00
2018-08-13T04:23:23.226Z,321.00
2018-08-13T04:24:24.000Z,320.00
2018-08-13T04:25:24.840Z,320.00
2018-08-13T04:26:24.573Z,320.00
2018-08-13T04:27:26.352Z,320.00
2018-08-13T04:28:27.128Z,321.00
2018-08-13T04:29:27.905Z,320.00
2018-08-13T04:30:28.697Z,321.00
2018-08-13T04:31:29.472Z,320.00
2018-08-13T04:32:30.251Z,320.00
2018-08-13T04:33:31.020Z,321.00
2018-08-13T04:34:31.794Z,321.00
2018-08-13T04:35:32.607Z,320.00
2018-08-13T04:36:33.377Z,321.00
2018-08-13T04:37:34.145Z,321.00
2018-08-13T04:38:34.925Z,322.00
2018-08-13T04:39:35.690Z,321.00
2018-08-13T04:40:36.493Z,321.00
2018-08-13T04:41:37.266Z,322.00
2018-08-13T04:42:38.041Z,322.00
2018-08-13T04:43:38.818Z,321.00
2018-08-13T04:44:39.584Z,321.00
2018-08-13T04:45:40.406Z,321.00
2018-08-13T04:46:41.173Z,322.00
2018-08-13T04:47:41.952Z,322.00
2018-08-13T04:48:42.718Z,322.00
2018-08-13T04:49:43.497Z,322.00
2018-08-13T04:50:44.291Z,322.00
2018-08-13T04:51:45.068Z,322.00
2018-08-13T04:52:45.836Z,322.00
2018-08-13T04:53:46.609Z,321.00
2018-08-13T04:54:47.386Z,321.00
2018-08-13T04:55:48.184Z,322.00
2018-08-13T04:56:48.963Z,321.00
2018-08-13T04:57:49.736Z,321.00
2018-08-13T04:58:50.514Z,322.00
2018-08-13T04:59:50.287Z,324.00
2018-08-13T05:00:52.086Z,324.00
2018-08-13T05:01:52.884Z,324.00
2018-08-13T05:02:52.634Z,325.00
2018-08-13T05:03:54.411Z,324.00
2018-08-13T05:04:55.185Z,325.00
2018-08-13T05:05:55.987Z,325.00
2018-08-13T05:06:56.760Z,324.00
2018-08-13T05:07:57.535Z,324.00
2018-08-13T05:08:58.314Z,324.00
2018-08-13T05:09:59.083Z,322.00
2018-08-13T05:10:59.892Z,322.00
2018-08-13T05:12:00.663Z,321.00
2018-08-13T05:13:01.442Z,321.00
2018-08-13T05:14:02.213Z,322.00
2018-08-13T05:15:02.993Z,321.00
2018-08-13T05:16:03.791Z,321.00
2018-08-13T05:17:04.568Z,322.00
2018-08-13T05:18:05.340Z,321.00
2018-08-13T05:19:06.201Z,322.00
2018-08-13T05:20:05.894Z,321.00
2018-08-13T05:21:06.738Z,321.00
2018-08-13T05:22:07.471Z,321.00
2018-08-13T05:23:09.241Z,321.00
2018-08-13T05:24:10.037Z,321.00
2018-08-13T05:25:10.785Z,321.00
2018-08-13T05:26:11.595Z,320.00
2018-08-13T05:27:12.437Z,321.00
2018-08-13T05:28:12.158Z,321.00
2018-08-13T05:29:13.916Z,321.00
2018-08-13T05:30:14.689Z,321.00
2018-08-13T05:31:14.493Z,321.00
2018-08-13T05:32:16.265Z,321.00
2018-08-13T05:33:17.041Z,321.00
2018-08-13T05:34:17.812Z,321.00
2018-08-13T05:35:18.589Z,322.00
2018-08-13T05:36:19.393Z,321.00
2018-08-13T05:37:20.160Z,321.00
2018-08-13T05:38:20.968Z,321.00
2018-08-13T05:39:20.709Z,321.00
2018-08-13T05:40:22.481Z,321.00
2018-08-13T05:41:23.282Z,321.00
2018-08-13T05:42:24.054Z,321.00
2018-08-13T05:43:24.832Z,321.00
2018-08-13T05:44:25.600Z,321.00
2018-08-13T05:45:26.374Z,320.00
2018-08-13T05:46:27.172Z,321.00
2018-08-13T05:47:27.946Z,321.00
2018-08-13T05:48:28.719Z,321.00
2018-08-13T05:49:29.495Z,321.00
2018-08-13T05:50:30.269Z,321.00
2018-08-13T05:51:31.071Z,321.00
2018-08-13T05:52:31.843Z,321.00
2018-08-13T05:53:32.614Z,321.00
2018-08-13T05:54:33.388Z,321.00
2018-08-13T05:55:34.162Z,321.00
2018-08-13T05:56:34.973Z,321.00
2018-08-13T05:57:35.743Z,321.00
2018-08-13T05:58:35.519Z,321.00
2018-08-13T05:59:37.295Z,321.00
2018-08-13T06:00:38.082Z,321.00
2018-08-13T06:01:38.867Z,321.00
2018-08-13T06:02:39.643Z,321.00
2018-08-13T06:03:40.416Z,321.00
2018-08-13T06:04:41.190Z,322.00
2018-08-13T06:05:41.963Z,321.00
2018-08-13T06:06:42.769Z,321.00
2018-08-13T06:07:43.540Z,321.00
2018-08-13T06:08:46.172Z,321.00
2018-08-13T06:09:55.966Z,322.00
2018-08-13T06:10:54.745Z,321.00
2018-08-13T06:11:56.539Z,321.00
2018-08-13T06:12:57.315Z,321.00
2018-08-13T06:13:58.087Z,321.00
2018-08-13T06:14:58.860Z,321.00
2018-08-13T06:15:59.632Z,322.00
2018-08-13T06:17:00.439Z,321.00
2018-08-13T06:18:01.303Z,321.00
2018-08-13T06:19:00.993Z,322.00
2018-08-13T06:20:02.769Z,321.00
2018-08-13T06:21:03.550Z,321.00
2018-08-13T06:22:04.347Z,322.00
2018-08-13T06:23:05.123Z,321.00
2018-08-13T06:24:05.937Z,322.00
2018-08-13T06:25:05.671Z,322.00
2018-08-13T06:26:07.445Z,322.00
2018-08-13T06:27:08.243Z,321.00
2018-08-13T06:28:09.043Z,322.00
2018-08-13T06:29:08.790Z,321.00
2018-08-13T06:30:09.681Z,322.00
2018-08-13T06:31:10.342Z,321.00
2018-08-13T06:32:12.142Z,321.00
2018-08-13T06:33:12.909Z,322.00
2018-08-13T06:34:13.682Z,321.00
2018-08-13T06:35:14.458Z,322.00
2018-08-13T06:36:15.227Z,321.00
2018-08-13T06:37:16.031Z,321.00
2018-08-13T06:38:15.813Z,321.00
2018-08-13T06:39:17.583Z,321.00
2018-08-13T06:40:18.356Z,321.00
2018-08-13T06:41:19.130Z,321.00
2018-08-13T06:42:19.929Z,324.00
2018-08-13T06:43:20.707Z,324.00
2018-08-13T06:44:21.501Z,324.00
2018-08-13T06:45:21.251Z,324.00
2018-08-13T06:46:23.024Z,324.00
2018-08-13T06:47:23.827Z,324.00
2018-08-13T06:48:24.608Z,325.00
2018-08-13T06:49:25.401Z,324.00
2018-08-13T06:50:26.153Z,325.00
2018-08-13T06:51:26.922Z,325.00
2018-08-13T06:52:26.726Z,324.00
2018-08-13T06:53:28.501Z,325.00
2018-08-13T06:54:29.277Z,324.00
2018-08-13T06:55:30.050Z,325.00
2018-08-13T06:56:30.827Z,326.00
2018-08-13T06:57:31.625Z,326.00
2018-08-13T06:58:32.402Z,325.00
2018-08-13T06:59:33.177Z,326.00
2018-08-13T07:00:33.951Z,326.00
2018-08-13T07:01:34.743Z,325.00
2018-08-13T07:02:35.526Z,325.00
2018-08-13T07:03:36.312Z,325.00
2018-08-13T07:04:37.077Z,325.00
2018-08-13T07:05:37.860Z,325.00
2018-08-13T07:06:38.630Z,325.00
2018-08-13T07:07:39.427Z,324.00
2018-08-13T07:08:40.203Z,324.00
2018-08-13T07:09:40.979Z,324.00
2018-08-13T07:10:41.752Z,325.00
2018-08-13T07:11:42.523Z,325.00
2018-08-13T07:12:44.277Z,326.00
2018-08-13T07:13:44.055Z,326.00
2018-08-13T07:14:44.823Z,326.00
2018-08-13T07:15:45.634Z,326.00
2018-08-13T07:16:45.384Z,326.00
2018-08-13T07:17:47.184Z,326.00
2018-08-13T07:18:47.951Z,325.00
2018-08-13T07:19:48.725Z,326.00
2018-08-13T07:20:49.500Z,326.00
2018-08-13T07:21:50.273Z,325.00
2018-08-13T07:22:51.079Z,325.00
2018-08-13T07:23:51.852Z,326.00
2018-08-13T07:24:52.627Z,326.00
2018-08-13T07:25:53.399Z,325.00
2018-08-13T07:26:54.178Z,326.00
2018-08-13T07:27:55.055Z,325.00
2018-08-13T07:28:54.748Z,326.00
2018-08-13T07:29:56.521Z,326.00
2018-08-13T07:30:57.297Z,326.00
2018-08-13T07:31:58.071Z,326.00
2018-08-13T07:32:58.881Z,326.00
2018-08-13T07:33:59.654Z,326.00
2018-08-13T07:35:00.426Z,327.00
2018-08-13T07:36:01.202Z,326.00
2018-08-13T07:37:01.974Z,327.00
2018-08-13T07:38:02.781Z,327.00
2018-08-13T07:39:03.651Z,327.00
2018-08-13T07:40:03.325Z,327.00
2018-08-13T07:41:05.104Z,327.00
2018-08-13T07:42:05.883Z,327.00
2018-08-13T07:43:06.680Z,328.00
2018-08-13T07:44:07.454Z,327.00
2018-08-13T07:45:08.229Z,327.00
2018-08-13T07:46:09.005Z,327.00
2018-08-13T07:47:09.780Z,327.00
2018-08-13T07:48:10.578Z,327.00
2018-08-13T07:49:11.351Z,328.00
2018-08-13T07:50:12.125Z,327.00
2018-08-13T07:51:12.907Z,328.00
2018-08-13T07:52:13.684Z,328.00
2018-08-13T07:53:14.482Z,329.00
2018-08-13T07:54:15.259Z,328.00
2018-08-13T07:55:16.030Z,328.00
2018-08-13T07:56:16.809Z,328.00
2018-08-13T07:57:17.578Z,328.00
2018-08-13T07:58:18.377Z,329.00
2018-08-13T07:59:19.151Z,329.00
2018-08-13T08:00:19.925Z,329.00
2018-08-13T08:01:20.701Z,328.00
2018-08-13T08:02:21.488Z,329.00
2018-08-13T08:03:22.289Z,328.00
2018-08-13T08:04:23.060Z,328.00
2018-08-13T08:05:23.835Z,328.00
2018-08-13T08:06:24.609Z,328.00
2018-08-13T08:07:26.806Z,328.00
2018-08-13T08:08:26.045Z,328.00
2018-08-13T08:11:25.384Z,327.00
2018-08-13T08:12:26.157Z,328.00
2018-08-13T08:13:26.956Z,328.00
2018-08-13T08:14:27.729Z,328.00
2018-08-13T08:15:28.508Z,328.00
2018-08-13T08:16:29.281Z,328.00
2018-08-13T08:17:30.058Z,328.00
2018-08-13T08:18:30.856Z,328.00
2018-08-13T08:19:31.626Z,329.00
2018-08-13T08:20:32.399Z,330.00
2018-08-13T08:21:33.187Z,330.00
2018-08-13T08:22:33.955Z,331.00
2018-08-13T08:23:34.756Z,331.00
2018-08-13T08:24:35.533Z,331.00
2018-08-13T08:25:36.304Z,331.00
2018-08-13T08:26:37.088Z,331.00
2018-08-13T08:27:37.857Z,331.00
2018-08-13T08:28:38.657Z,331.00
2018-08-13T08:29:39.432Z,331.00
2018-08-13T08:30:40.208Z,329.00
2018-08-13T08:31:40.979Z,328.00
2018-08-13T08:32:41.758Z,327.00
2018-08-13T08:33:42.563Z,327.00
2018-08-13T08:34:43.381Z,327.00
2018-08-13T08:35:43.108Z,328.00
2018-08-13T08:36:44.880Z,328.00
2018-08-13T08:37:45.660Z,328.00
2018-08-13T08:38:46.458Z,328.00
2018-08-13T08:39:47.233Z,328.00
2018-08-13T08:40:48.024Z,329.00
2018-08-13T08:41:48.779Z,329.00
2018-08-13T08:42:49.553Z,329.00
2018-08-13T08:43:50.361Z,329.00
2018-08-13T08:44:51.136Z,327.00
2018-08-13T08:45:51.946Z,327.00
2018-08-13T08:46:51.679Z,327.00
2018-08-13T08:47:53.454Z,327.00
2018-08-13T08:48:54.259Z,324.00
2018-08-13T08:49:55.036Z,328.00
2018-08-13T08:50:55.807Z,325.00
2018-08-13T08:51:56.588Z,327.00
2018-08-13T08:52:57.357Z,330.00
2018-08-13T08:53:58.168Z,328.00
2018-08-13T08:54:58.938Z,328.00
2018-08-13T08:55:59.715Z,328.00
2018-08-13T08:57:00.483Z,333.00
2018-08-13T08:58:01.272Z,328.00
2018-08-13T08:59:02.055Z,328.00
2018-08-13T09:00:02.831Z,328.00
2018-08-13T09:01:03.606Z,328.00
2018-08-13T09:02:04.383Z,328.00
2018-08-13T09:03:05.156Z,330.00
2018-08-13T09:04:05.953Z,330.00
2018-08-13T09:05:06.726Z,328.00
2018-08-13T09:06:07.505Z,332.00
2018-08-13T09:07:08.271Z,328.00
2018-08-13T09:08:09.041Z,329.00
2018-08-13T09:09:09.842Z,330.00
2018-08-13T09:10:10.614Z,330.00
2018-08-13T09:11:11.388Z,330.00
2018-08-13T09:12:12.161Z,330.00
2018-08-13T09:13:12.940Z,333.00
2018-08-13T09:14:13.795Z,333.00
2018-08-13T09:15:13.518Z,334.00
2018-08-13T09:16:15.290Z,336.00
2018-08-13T09:17:16.062Z,337.00
2018-08-13T09:18:16.845Z,338.00
2018-08-13T09:19:17.638Z,338.00
2018-08-13T09:20:18.414Z,340.00
2018-08-13T09:21:19.185Z,339.00
2018-08-13T09:22:19.963Z,340.00
2018-08-13T09:23:20.739Z,341.00
2018-08-13T09:24:21.539Z,342.00
2018-08-13T09:25:22.315Z,343.00
2018-08-13T09:26:23.087Z,344.00
2018-08-13T09:27:23.864Z,344.00
2018-08-13T09:28:24.643Z,344.00
2018-08-13T09:29:25.440Z,344.00
2018-08-13T09:30:26.214Z,345.00
2018-08-13T09:31:26.988Z,348.00
2018-08-13T09:32:27.764Z,349.00
2018-08-13T09:33:28.536Z,384.00
2018-08-13T09:34:29.336Z,388.00
2018-08-13T09:35:30.113Z,384.00
2018-08-13T09:36:30.897Z,385.00
2018-08-13T09:37:31.662Z,376.00
2018-08-13T09:38:32.434Z,366.00
2018-08-13T09:39:33.233Z,364.00
2018-08-13T09:40:35.008Z,357.00
2018-08-13T09:41:34.780Z,380.00
2018-08-13T09:42:35.549Z,384.00
2018-08-13T09:43:36.411Z,385.00
2018-08-13T09:44:36.140Z,384.00
2018-08-13T09:45:37.918Z,372.00
2018-08-13T09:46:38.691Z,364.00
2018-08-13T09:47:39.470Z,362.00
2018-08-13T09:48:40.235Z,382.00
2018-08-13T09:49:41.038Z,380.00
2018-08-13T09:50:41.812Z,381.00
2018-08-13T09:51:42.588Z,385.00
2018-08-13T09:52:43.361Z,386.00
2018-08-13T09:53:44.177Z,399.00
2018-08-13T09:54:43.939Z,387.00
2018-08-13T09:55:45.718Z,364.00
2018-08-13T09:56:46.488Z,370.00
2018-08-13T09:57:47.263Z,386.00
2018-08-13T09:58:48.035Z,384.00
2018-08-13T09:59:48.837Z,376.00
2018-08-13T10:00:49.614Z,385.00
2018-08-13T10:01:50.488Z,387.00
2018-08-13T10:02:51.646Z,385.00
2018-08-13T10:03:53.121Z,389.00
2018-08-13T10:04:51.353Z,377.00
2018-08-13T10:05:51.557Z,379.00
2018-08-13T10:08:49.466Z,358.00
2018-08-13T10:09:48.242Z,363.00
2018-08-13T10:10:49.063Z,378.00
2018-08-13T10:11:49.817Z,372.00
2018-08-13T10:12:50.588Z,362.00
2018-08-13T10:13:51.360Z,358.00
2018-08-13T10:14:52.134Z,358.00
2018-08-13T10:15:52.936Z,357.00
2018-08-13T10:16:53.892Z,353.00
2018-08-13T10:17:53.556Z,350.00
2018-08-13T10:18:54.252Z,354.00
2018-08-13T10:19:56.025Z,356.00
2018-08-13T10:20:56.822Z,355.00
2018-08-13T10:21:57.594Z,350.00
2018-08-13T10:22:58.369Z,350.00
2018-08-13T10:23:59.143Z,348.00
2018-08-13T10:24:59.920Z,346.00
2018-08-13T10:26:00.716Z,346.00
2018-08-13T10:27:01.488Z,346.00
2018-08-13T10:28:02.270Z,344.00
2018-08-13T10:29:03.034Z,344.00
2018-08-13T10:30:03.807Z,344.00
2018-08-13T10:31:04.694Z,346.00
2018-08-13T10:32:04.387Z,350.00
2018-08-13T10:33:06.162Z,349.00
2018-08-13T10:34:06.931Z,350.00
2018-08-13T10:35:07.711Z,349.00
2018-08-13T10:36:08.503Z,351.00
2018-08-13T10:37:09.277Z,354.00
2018-08-13T10:38:10.049Z,357.00
2018-08-13T10:39:10.824Z,360.00
2018-08-13T10:40:11.600Z,352.00
2018-08-13T10:41:12.396Z,348.00
2018-08-13T10:42:13.168Z,343.00
2018-08-13T10:43:13.939Z,345.00
2018-08-13T10:44:14.713Z,343.00
2018-08-13T10:45:15.486Z,345.00
2018-08-13T10:46:16.328Z,343.00
2018-08-13T10:47:16.170Z,342.00
2018-08-13T10:48:17.860Z,339.00
2018-08-13T10:49:18.636Z,339.00
2018-08-13T10:50:19.406Z,341.00
2018-08-13T10:51:20.213Z,342.00
2018-08-13T10:52:20.979Z,338.00
2018-08-13T10:53:21.752Z,337.00
2018-08-13T10:54:22.526Z,338.00
2018-08-13T10:55:23.296Z,339.00
2018-08-13T10:56:24.095Z,343.00
2018-08-13T10:57:24.869Z,340.00
2018-08-13T10:58:25.647Z,339.00
2018-08-13T10:59:26.415Z,340.00
2018-08-13T11:00:27.200Z,341.00
2018-08-13T11:01:27.990Z,339.00
2018-08-13T11:02:28.767Z,339.00
2018-08-13T11:03:29.539Z,338.00
2018-08-13T11:04:30.314Z,337.00
2018-08-13T11:05:31.085Z,338.00
2018-08-13T11:06:31.888Z,340.00
2018-08-13T11:07:32.673Z,401.00
2018-08-13T11:08:32.445Z,355.00
2018-08-13T11:09:34.221Z,361.00
2018-08-13T11:10:34.995Z,348.00
2018-08-13T11:11:35.796Z,340.00
2018-08-13T11:12:36.568Z,339.00
2018-08-13T11:13:37.342Z,338.00
2018-08-13T11:14:38.115Z,334.00
2018-08-13T11:15:38.888Z,333.00
2018-08-13T11:16:39.689Z,334.00
2018-08-13T11:17:40.463Z,332.00
2018-08-13T11:18:41.233Z,331.00
2018-08-13T11:19:42.016Z,336.00
2018-08-13T11:20:42.782Z,337.00
2018-08-13T11:21:43.651Z,340.00
2018-08-13T11:22:43.377Z,341.00
2018-08-13T11:23:45.131Z,341.00
2018-08-13T11:24:45.903Z,341.00
2018-08-13T11:25:46.676Z,343.00
2018-08-13T11:26:47.492Z,350.00
2018-08-13T11:27:48.254Z,354.00
2018-08-13T11:28:49.120Z,357.00
2018-08-13T11:29:48.816Z,401.00
2018-08-13T11:30:50.593Z,370.00
2018-08-13T11:31:51.389Z,398.00
2018-08-13T11:32:52.157Z,388.00
2018-08-13T11:33:52.940Z,400.00
2018-08-13T11:34:53.789Z,400.00
2018-08-13T11:35:53.479Z,400.00
2018-08-13T11:36:55.277Z,399.00
2018-08-13T11:37:56.050Z,398.00
2018-08-13T11:38:56.831Z,381.00
2018-08-13T11:39:57.607Z,375.00
2018-08-13T11:40:58.376Z,400.00
2018-08-13T11:41:59.177Z,399.00
2018-08-13T11:42:59.948Z,394.00
2018-08-13T11:44:00.722Z,363.00
2018-08-13T11:45:01.500Z,398.00
2018-08-13T11:46:02.282Z,357.00
2018-08-13T11:47:03.074Z,400.00
2018-08-13T11:48:03.853Z,374.00
2018-08-13T11:49:04.623Z,396.00
2018-08-13T11:50:05.402Z,353.00
2018-08-13T11:51:06.169Z,375.00
2018-08-13T11:52:06.975Z,380.00
2018-08-13T11:53:07.749Z,401.00
2018-08-13T11:54:08.524Z,393.00
2018-08-13T11:55:09.299Z,398.00
2018-08-13T11:56:10.073Z,399.00
2018-08-13T11:57:10.903Z,399.00
2018-08-13T11:58:11.646Z,399.00
2018-08-13T11:59:12.435Z,357.00
2018-08-13T12:00:13.199Z,400.00
2018-08-13T12:01:13.972Z,373.00
2018-08-13T12:02:14.773Z,385.00
2018-08-13T12:03:15.650Z,378.00
2018-08-13T12:04:15.732Z,354.00
2018-08-13T12:05:16.934Z,349.00
2018-08-13T12:06:16.150Z,370.00
2018-08-13T12:07:17.460Z,385.00
2018-08-13T12:10:10.770Z,370.00
2018-08-13T12:11:11.543Z,399.00
2018-08-13T12:12:12.314Z,399.00
2018-08-13T12:13:13.109Z,401.00
2018-08-13T12:14:13.984Z,398.00
2018-08-13T12:15:13.658Z,398.00
2018-08-13T12:16:15.435Z,398.00
2018-08-13T12:17:16.207Z,398.00
2018-08-13T12:18:17.008Z,399.00
2018-08-13T12:19:17.782Z,398.00
2018-08-13T12:20:18.562Z,399.00
2018-08-13T12:21:19.331Z,399.00
2018-08-13T12:22:20.103Z,398.00
2018-08-13T12:23:20.914Z,399.00
2018-08-13T12:24:21.681Z,399.00
2018-08-13T12:25:22.465Z,399.00
2018-08-13T12:26:23.241Z,400.00
2018-08-13T12:27:23.007Z,398.00
2018-08-13T12:28:24.844Z,356.00
2018-08-13T12:29:24.578Z,357.00
2018-08-13T12:30:26.357Z,361.00
2018-08-13T12:31:27.128Z,365.00
2018-08-13T12:32:27.905Z,357.00
2018-08-13T12:33:28.703Z,358.00
2018-08-13T12:34:30.480Z,361.00
2018-08-13T12:35:30.252Z,360.00
2018-08-13T12:36:31.025Z,354.00
2018-08-13T12:37:31.801Z,352.00
2018-08-13T12:38:32.604Z,353.00
2018-08-13T12:39:33.374Z,354.00
2018-08-13T12:40:34.146Z,353.00
2018-08-13T12:41:34.920Z,355.00
2018-08-13T12:42:35.693Z,357.00
2018-08-13T12:43:36.489Z,370.00
2018-08-13T12:44:37.262Z,365.00
2018-08-13T12:45:37.036Z,376.00
2018-08-13T12:46:38.811Z,401.00